Time;durP1;ratioP1;P1;durP2;ratioP2;P2;SDS_P1;SDS_P2;PMS_P1;PMS_P2;Temp;Humidity;BMP_temperature;BMP_pressure;BME280_temperature;BME280_humidity;BME280_pressure;Samples;Min_cycle;Max_cycle;Signal;HPM_P1;HPM_P2
2022/07/15 00:00:13;;;;;;;4.72;2.00;;;;;;;25.41;41.41;95005.94;5040482;28;20053;-48
2022/07/15 00:02:39;;;;;;;4.55;1.90;;;;;;;25.42;41.40;95020.34;5040576;28;20427;-48
2022/07/15 00:05:06;;;;;;;4.45;1.90;;;;;;;25.37;41.65;95015.69;5045986;28;20025;-48
2022/07/15 00:07:32;;;;;;;4.63;2.30;;;;;;;25.38;41.27;95017.91;5045909;28;20558;-48
2022/07/15 00:10:18;;;;;;;4.50;2.00;;;;;;;25.36;41.43;95025.16;5046066;28;20551;-48
2022/07/15 00:12:54;;;;;;;3.25;1.98;;;;;;;25.35;41.67;95018.19;5045622;28;20705;-48
2022/07/15 00:15:22;;;;;;;5.28;2.20;;;;;;;25.34;41.64;95016.75;5045964;28;20603;-48
2022/07/15 00:17:48;;;;;;;4.55;1.90;;;;;;;25.27;41.82;95022.81;5037686;28;20650;-48
2022/07/15 00:20:14;;;;;;;3.72;1.95;;;;;;;25.29;41.57;95023.06;5045812;28;20017;-47
2022/07/15 00:22:40;;;;;;;2.47;1.70;;;;;;;25.22;41.86;95025.66;5045587;28;20021;-48
2022/07/15 00:25:06;;;;;;;4.32;2.28;;;;;;;25.22;41.59;95025.66;5045576;28;20531;-48
2022/07/15 00:27:32;;;;;;;3.65;2.20;;;;;;;25.22;41.86;95031.84;5043574;28;20439;-47
2022/07/15 00:29:58;;;;;;;3.10;2.30;;;;;;;25.20;41.73;95026.19;5046021;28;20058;-48
2022/07/15 00:32:23;;;;;;;3.25;1.95;;;;;;;25.21;41.73;95019.44;5034811;28;20029;-48
2022/07/15 00:34:51;;;;;;;3.95;1.70;;;;;;;25.20;42.09;95028.91;5045442;28;20025;-48
2022/07/15 00:37:16;;;;;;;3.65;2.40;;;;;;;25.19;41.58;95027.44;5045477;28;20382;-48
2022/07/15 00:39:43;;;;;;;3.65;2.10;;;;;;;25.15;41.71;95026.97;5044255;28;20017;-48
2022/07/15 00:42:11;;;;;;;5.03;2.00;;;;;;;25.14;41.64;95020.06;5045013;28;20416;-48
2022/07/15 00:44:37;;;;;;;3.83;1.98;;;;;;;25.12;41.69;95022.56;5045002;28;20548;-48
2022/07/15 00:47:03;;;;;;;3.45;1.85;;;;;;;25.11;41.93;95021.09;5036995;28;20591;-48
2022/07/15 00:49:29;;;;;;;2.70;1.70;;;;;;;25.11;41.92;95014.88;5039528;28;20035;-48
2022/07/15 00:51:55;;;;;;;3.30;1.70;;;;;;;25.08;41.91;95016.66;5045203;28;20043;-49
2022/07/15 00:54:25;;;;;;;4.20;1.92;;;;;;;25.10;41.71;95007.94;5045002;28;20605;-48
2022/07/15 00:56:53;;;;;;;4.95;2.35;;;;;;;25.07;42.03;95004.25;5045062;28;20514;-48
2022/07/15 00:59:23;;;;;;;3.40;2.20;;;;;;;25.08;41.76;95005.75;5044507;28;20542;-48
2022/07/15 01:01:48;;;;;;;;;;;;;;;25.08;41.95;95000.28;5035498;28;20560;-48
2022/07/15 01:04:15;;;;;;;3.92;1.90;;;;;;;25.06;41.94;94997.31;5044634;28;19908;-47
2022/07/15 01:06:40;;;;;;;6.47;2.42;;;;;;;25.01;41.60;94987.22;5044372;28;20555;-48
2022/07/15 01:09:06;;;;;;;3.72;1.85;;;;;;;25.01;41.74;94995.41;5027118;28;20017;-49
2022/07/15 01:11:32;;;;;;;3.00;2.00;;;;;;;25.01;41.96;95000.13;5044643;28;20029;-48
2022/07/15 01:13:58;;;;;;;3.95;2.25;;;;;;;24.99;42.21;94992.47;5026773;28;20062;-47
2022/07/15 01:16:24;;;;;;;3.05;2.00;;;;;;;24.96;42.18;95004.41;5037785;28;20626;-47
2022/07/15 01:18:50;;;;;;;5.22;2.53;;;;;;;24.97;42.18;94997.66;5038465;28;20488;-48
2022/07/15 01:21:15;;;;;;;4.38;2.67;;;;;;;24.96;41.99;95004.41;5044653;28;20028;-48
2022/07/15 01:23:42;;;;;;;5.80;2.67;;;;;;;24.96;42.03;94998.94;5044207;28;20029;-48
2022/07/15 01:26:12;;;;;;;6.22;3.55;;;;;;;24.94;42.06;94995.97;5044126;28;20670;-48
2022/07/15 01:28:39;;;;;;;10.40;4.38;;;;;;;24.95;41.72;94992.00;5042279;28;20683;-47
2022/07/15 01:31:05;;;;;;;8.25;4.57;;;;;;;24.93;42.07;94989.06;5043314;28;20452;-47
2022/07/15 01:33:31;;;;;;;9.98;4.97;;;;;;;24.90;42.12;94983.88;5044152;28;20103;-48
2022/07/15 01:35:59;;;;;;;9.65;4.70;;;;;;;24.88;42.42;94987.13;5043687;28;20550;-48
2022/07/15 01:38:25;;;;;;;11.38;4.70;;;;;;;24.87;42.10;94979.44;5026030;28;20747;-48
2022/07/15 01:40:51;;;;;;;12.50;5.15;;;;;;;24.91;41.55;94988.81;5043442;28;20535;-48
2022/07/15 01:43:17;;;;;;;9.60;4.60;;;;;;;24.90;42.51;94983.88;5024932;28;20506;-48
2022/07/15 01:45:45;;;;;;;10.70;5.38;;;;;;;24.87;42.53;94985.66;5039481;28;20030;-48
2022/07/15 01:49:21;;;;;;;11.35;5.30;;;;;;;24.84;42.64;94986.69;5040692;28;20494;-48
2022/07/15 01:50:57;;;;;;;10.23;5.38;;;;;;;24.84;42.28;94986.69;5043339;28;20037;-48
2022/07/15 01:53:24;;;;;;;9.77;4.95;;;;;;;24.80;42.55;94990.22;5043394;28;20084;-48
2022/07/15 01:55:50;;;;;;;10.05;5.25;;;;;;;24.80;42.63;94984.78;5043718;28;20508;-48
2022/07/15 01:58:16;;;;;;;11.18;6.03;;;;;;;24.80;42.33;94995.69;5034415;28;20021;-48
2022/07/15 02:00:42;;;;;;;9.85;5.38;;;;;;;24.74;42.55;94998.53;5006502;28;20026;-48
2022/07/15 02:03:07;;;;;;;11.65;5.85;;;;;;;24.71;42.90;94990.63;5034539;28;20034;-48
2022/07/15 02:05:34;;;;;;;10.45;5.82;;;;;;;24.70;42.50;94992.63;5043455;28;20029;-48
2022/07/15 02:08:00;;;;;;;10.35;5.10;;;;;;;24.70;42.94;94997.34;5043568;28;20024;-48
2022/07/15 02:10:39;;;;;;;10.18;5.15;;;;;;;24.72;42.29;95000.28;5043700;28;20021;-47
2022/07/15 02:13:08;;;;;;;12.13;4.97;;;;;;;24.71;42.51;94991.38;5043462;28;20488;-48
2022/07/15 02:15:34;;;;;;;8.65;5.00;;;;;;;24.69;41.97;94991.13;5042800;28;20025;-49
2022/07/15 02:18:00;;;;;;;9.43;5.18;;;;;;;24.73;42.19;94996.31;5041867;28;20038;-48
2022/07/15 02:20:26;;;;;;;8.63;5.20;;;;;;;24.73;42.09;94996.31;5043209;28;20436;-47
2022/07/15 02:22:52;;;;;;;10.50;5.20;;;;;;;24.67;41.96;94998.38;5043222;28;20468;-49
2022/07/15 02:25:17;;;;;;;8.48;4.57;;;;;;;24.63;42.32;94998.66;5043796;28;20067;-48
2022/07/15 02:27:43;;;;;;;10.68;5.20;;;;;;;24.63;42.62;94998.66;5042417;28;20029;-49
2022/07/15 02:30:09;;;;;;;10.82;5.07;;;;;;;24.60;42.55;94993.50;5043297;28;20025;-49
2022/07/15 02:32:35;;;;;;;10.50;4.90;;;;;;;24.62;42.75;94996.44;5043307;28;20033;-49
2022/07/15 02:35:00;;;;;;;8.60;4.88;;;;;;;24.60;42.65;95001.69;5043252;28;20056;-48
2022/07/15 02:37:26;;;;;;;10.15;5.22;;;;;;;24.64;42.75;94996.69;5039331;28;20056;-48
2022/07/15 02:39:52;;;;;;;9.38;4.57;;;;;;;24.63;42.50;94992.47;5043029;28;20029;-48
2022/07/15 02:42:18;;;;;;;11.18;4.65;;;;;;;24.59;42.44;94994.78;5043354;28;20021;-49
2022/07/15 02:44:44;;;;;;;9.75;4.43;;;;;;;24.58;42.57;94990.56;5043701;28;20087;-49
2022/07/15 02:47:10;;;;;;;8.18;4.28;;;;;;;24.54;42.53;94985.41;5043269;28;20032;-48
2022/07/15 02:49:36;;;;;;;8.93;4.72;;;;;;;24.55;42.62;95002.53;5042936;28;20032;-48
2022/07/15 02:52:01;;;;;;;10.60;4.95;;;;;;;24.54;42.96;94990.13;5043015;28;20074;-48
2022/07/15 02:54:27;;;;;;;8.30;4.57;;;;;;;24.52;42.77;94992.63;5042186;28;20112;-48
2022/07/15 02:56:53;;;;;;;8.95;4.55;;;;;;;24.51;42.71;94991.16;5042985;28;20041;-48
2022/07/15 02:59:19;;;;;;;7.65;4.20;;;;;;;24.51;42.54;94991.16;5042511;28;20045;-48
2022/07/15 03:01:45;;;;;;;8.32;4.40;;;;;;;24.52;42.60;94987.16;5043388;28;20017;-48
2022/07/15 03:04:10;;;;;;;11.07;4.72;;;;;;;24.48;42.78;94986.72;5047051;28;20025;-48
2022/07/15 03:06:36;;;;;;;8.98;4.10;;;;;;;24.44;42.93;94987.03;5042835;28;20051;-48
2022/07/15 03:09:02;;;;;;;8.40;3.88;;;;;;;24.44;42.89;94986.28;5046861;28;20017;-48
2022/07/15 03:11:28;;;;;;;8.27;3.53;;;;;;;24.42;43.17;94983.31;5035690;28;20020;-48
2022/07/15 03:13:54;;;;;;;6.35;3.65;;;;;;;24.44;43.04;94991.75;5042358;28;20500;-48
2022/07/15 03:16:20;;;;;;;8.80;4.10;;;;;;;24.39;43.13;94995.28;5046851;28;20006;-48
2022/07/15 03:18:46;;;;;;;7.05;4.05;;;;;;;24.38;43.02;94988.38;5046836;28;20126;-48
2022/07/15 03:21:11;;;;;;;7.50;3.90;;;;;;;24.40;42.75;94996.75;5046672;28;20005;-48
2022/07/15 03:23:37;;;;;;;6.90;3.70;;;;;;;24.34;43.04;94993.38;5046674;28;20115;-48
2022/07/15 03:26:02;;;;;;;7.22;3.40;;;;;;;24.37;42.98;94975.97;5046579;28;20025;-48
2022/07/15 03:28:28;;;;;;;6.70;3.95;;;;;;;24.37;42.75;94989.59;5044729;28;20065;-47
2022/07/15 03:30:54;;;;;;;6.30;3.97;;;;;;;24.32;42.73;94984.94;5046353;28;20020;-46
2022/07/15 03:33:19;;;;;;;6.97;3.40;;;;;;;24.32;42.92;94979.47;5046743;28;20021;-48
2022/07/15 03:35:45;;;;;;;5.72;3.10;;;;;;;24.31;43.08;94988.91;5035107;28;20177;-49
2022/07/15 03:38:11;;;;;;;6.80;3.60;;;;;;;24.31;42.83;94994.38;5045869;28;20039;-47
2022/07/15 03:40:37;;;;;;;6.38;3.65;;;;;;;24.32;42.76;94984.94;5046620;28;20449;-47
2022/07/15 03:43:03;;;;;;;11.02;6.00;;;;;;;24.33;43.08;94991.88;5046128;28;20032;-47
2022/07/15 03:45:28;;;;;;;16.45;9.75;;;;;;;24.34;42.73;94987.91;5046442;28;20047;-48
2022/07/15 03:47:54;;;;;;;15.98;10.38;;;;;;;24.31;42.86;94994.38;5028061;28;20081;-47
2022/07/15 03:50:20;;;;;;;14.35;10.45;;;;;;;24.28;43.00;94998.13;5044844;28;20027;-48
2022/07/15 03:52:46;;;;;;;11.85;9.10;;;;;;;24.30;43.02;94994.88;5046380;28;20555;-47
2022/07/15 03:55:12;;;;;;;11.48;8.00;;;;;;;24.28;43.16;94995.41;5046153;28;20021;-47
2022/07/15 03:57:38;;;;;;;12.35;8.57;;;;;;;24.31;43.23;94997.09;5046254;28;20017;-47
2022/07/15 04:00:04;;;;;;;11.48;7.63;;;;;;;24.32;43.21;95000.56;5045920;28;20891;-47
2022/07/15 04:02:30;;;;;;;9.95;6.35;;;;;;;24.31;42.88;94999.81;5027897;28;20472;-47
2022/07/15 04:04:55;;;;;;;9.15;6.30;;;;;;;24.29;43.38;94991.44;5042849;28;20034;-47
2022/07/15 04:07:21;;;;;;;7.35;5.70;;;;;;;24.28;43.18;95000.84;5034569;28;20131;-48
2022/07/15 04:09:47;;;;;;;9.38;5.25;;;;;;;24.28;42.96;95003.59;5045016;28;20028;-48
2022/07/15 04:12:13;;;;;;;6.60;4.82;;;;;;;24.26;42.93;94997.91;5045580;28;20025;-48
2022/07/15 04:14:38;;;;;;;7.30;4.97;;;;;;;24.30;42.86;95003.81;5044523;28;20024;-48
2022/07/15 04:17:04;;;;;;;9.23;4.80;;;;;;;24.28;42.87;94995.41;5045639;28;20033;-49
2022/07/15 04:19:30;;;;;;;5.35;4.13;;;;;;;24.29;42.66;94996.88;5045652;28;20131;-47
2022/07/15 04:21:56;;;;;;;6.97;4.18;;;;;;;24.29;43.08;95002.34;5040690;28;20365;-47
2022/07/15 04:24:22;;;;;;;5.43;3.72;;;;;;;24.29;42.92;94996.13;5045376;28;20033;-47
2022/07/15 04:26:47;;;;;;;5.72;4.03;;;;;;;24.35;42.85;95003.03;5045292;28;20025;-47
2022/07/15 04:29:13;;;;;;;5.50;3.90;;;;;;;24.33;43.21;95002.78;5045225;28;20029;-48
2022/07/15 04:31:39;;;;;;;5.22;3.10;;;;;;;24.33;42.79;95002.78;5045657;28;20021;-48
2022/07/15 04:34:05;;;;;;;6.97;3.25;;;;;;;24.27;43.30;95004.84;5045333;28;20056;-48
2022/07/15 04:36:30;;;;;;;7.57;2.92;;;;;;;24.25;42.89;94996.44;5031703;28;20029;-48
2022/07/15 04:38:56;;;;;;;6.40;2.95;;;;;;;24.20;43.53;95004.66;5039925;28;20024;-49
2022/07/15 04:41:22;;;;;;;6.82;2.60;;;;;;;23.90;43.98;94961.16;5045095;28;20114;-49
2022/07/15 04:43:48;;;;;;;8.00;3.50;;;;;;;24.18;43.32;95002.47;5045067;28;20642;-49
2022/07/15 04:46:14;;;;;;;6.68;3.00;;;;;;;24.16;43.69;95001.50;5045211;28;20021;-49
2022/07/15 04:51:24;;;;;;;5.93;2.65;;;;;;;24.13;44.94;95000.53;5045112;28;20056;-49
2022/07/15 04:53:50;;;;;;;4.50;2.92;;;;;;;24.13;44.29;95006.00;5044956;28;20017;-49
2022/07/15 04:56:15;;;;;;;5.18;2.75;;;;;;;24.13;43.97;95006.00;5041127;28;20021;-49
2022/07/15 04:58:41;;;;;;;6.88;2.80;;;;;;;24.10;44.62;95006.31;5044393;28;20041;-48
2022/07/15 05:01:07;;;;;;;7.88;3.00;;;;;;;24.08;45.06;94998.63;5044745;28;20021;-48
2022/07/15 05:03:33;;;;;;;6.28;2.42;;;;;;;24.08;45.22;95008.78;5044646;28;20132;-48
2022/07/15 05:05:58;;;;;;;5.13;2.58;;;;;;;24.09;45.06;95008.28;5036509;28;20025;-49
2022/07/15 05:08:24;;;;;;;5.82;2.92;;;;;;;24.16;44.56;95004.97;5026843;28;20021;-49
2022/07/15 05:10:50;;;;;;;4.20;2.42;;;;;;;24.20;44.58;95010.88;5044274;28;20017;-49
2022/07/15 05:13:15;;;;;;;4.70;2.63;;;;;;;24.21;44.48;95006.88;5042756;28;20032;-49
2022/07/15 05:15:41;;;;;;;4.82;2.38;;;;;;;24.23;44.80;95003.66;5035096;28;20017;-49
2022/07/15 05:18:07;;;;;;;3.97;2.45;;;;;;;24.28;44.31;95006.31;5043273;28;20098;-49
2022/07/15 05:20:33;;;;;;;5.22;2.25;;;;;;;24.30;44.59;95005.81;5044029;28;20025;-48
2022/07/15 05:22:58;;;;;;;5.93;2.03;;;;;;;24.39;43.73;95008.94;5044131;28;20029;-52
2022/07/15 05:25:24;;;;;;;3.85;2.08;;;;;;;24.49;42.95;94999.13;5043683;28;20021;-49
2022/07/15 05:27:51;;;;;;;3.78;2.20;;;;;;;24.55;42.32;94997.78;5032361;28;20001;-49
2022/07/15 05:30:17;;;;;;;5.28;2.28;;;;;;;24.64;42.18;95002.16;5042128;28;20599;-50
2022/07/15 05:32:43;;;;;;;3.20;1.60;;;;;;;24.82;41.42;95005.59;5044003;28;20032;-49
2022/07/15 05:35:09;;;;;;;4.65;2.05;;;;;;;24.91;40.94;95002.47;5044264;28;21524;-48
2022/07/15 05:37:38;;;;;;;3.55;1.80;;;;;;;25.07;40.12;95001.53;5043898;28;20044;-49
2022/07/15 05:40:06;;;;;;;4.20;1.70;;;;;;;25.19;39.66;95000.09;5043644;28;20529;-50
2022/07/15 05:42:32;;;;;;;3.42;1.73;;;;;;;25.32;39.25;94998.13;5044026;28;20492;-48
2022/07/15 05:44:58;;;;;;;5.28;1.88;;;;;;;25.46;39.29;94996.16;5040625;28;20032;-50
2022/07/15 05:47:24;;;;;;;3.30;1.83;;;;;;;25.56;39.07;94989.00;5034969;28;20039;-50
2022/07/15 05:49:49;;;;;;;3.10;1.88;;;;;;;25.65;39.11;94996.84;5042270;28;20039;-49
2022/07/15 05:52:15;;;;;;;2.15;1.55;;;;;;;25.80;38.17;95003.28;5043808;28;20051;-48
2022/07/15 05:54:41;;;;;;;3.83;1.85;;;;;;;25.83;38.75;94997.50;5039044;28;20029;-48
2022/07/15 05:57:06;;;;;;;4.88;1.80;;;;;;;25.87;38.84;94997.16;5036931;28;20024;-49
2022/07/15 05:59:31;;;;;;;3.75;2.00;;;;;;;25.97;39.47;94985.28;5032295;28;20487;-49
2022/07/15 06:01:58;;;;;;;4.30;2.08;;;;;;;26.05;39.24;94997.09;5043034;28;20056;-49
2022/07/15 06:04:26;;;;;;;2.80;1.92;;;;;;;26.22;39.53;94994.75;5042704;28;20447;-47
2022/07/15 06:06:53;;;;;;;4.60;2.25;;;;;;;26.28;39.44;94992.66;5040617;28;20115;-49
2022/07/15 06:09:19;;;;;;;6.63;2.28;;;;;;;26.36;39.42;94988.00;5043001;28;20087;-49
2022/07/15 06:11:44;;;;;;;5.72;2.30;;;;;;;26.52;39.34;94992.41;5041394;28;20037;-49
2022/07/15 06:14:10;;;;;;;4.78;2.30;;;;;;;26.74;38.74;94994.66;5042928;28;20024;-49
2022/07/15 06:16:35;;;;;;;5.03;2.30;;;;;;;26.79;39.14;95003.50;5019437;28;20411;-49
2022/07/15 06:19:00;;;;;;;4.97;2.40;;;;;;;26.83;39.09;95003.91;5042787;28;20443;-49
2022/07/15 06:21:26;;;;;;;5.13;2.70;;;;;;;26.95;38.86;94994.19;5037330;28;20399;-49
2022/07/15 06:23:51;;;;;;;5.70;2.40;;;;;;;27.04;38.66;95001.97;5032858;28;20028;-50
2022/07/15 06:26:17;;;;;;;3.90;2.05;;;;;;;27.04;39.06;94996.47;5036509;28;20094;-49
2022/07/15 06:28:42;;;;;;;5.30;2.65;;;;;;;27.17;38.29;94992.94;5040682;28;20069;-49
2022/07/15 06:31:08;;;;;;;5.70;2.22;;;;;;;27.20;38.74;94998.06;5046201;28;20530;-49
2022/07/15 06:33:33;;;;;;;8.63;2.95;;;;;;;27.27;38.10;95000.16;5038081;28;20342;-49
2022/07/15 06:35:59;;;;;;;5.57;2.33;;;;;;;27.34;38.29;94996.75;5029560;28;20431;-49
2022/07/15 06:38:24;;;;;;;5.25;2.10;;;;;;;27.35;37.89;94998.22;5041628;28;20513;-50
2022/07/15 06:40:50;;;;;;;5.05;1.92;;;;;;;27.18;38.14;94989.66;5039700;28;20388;-49
2022/07/15 06:43:15;;;;;;;6.60;2.28;;;;;;;27.14;38.43;94996.75;5022951;28;20080;-50
2022/07/15 06:45:41;;;;;;;4.80;2.20;;;;;;;27.12;38.48;94997.28;5040593;28;20025;-50
2022/07/15 06:48:06;;;;;;;6.30;2.20;;;;;;;27.06;38.61;94993.22;5041218;28;20029;-49
2022/07/15 06:50:32;;;;;;;3.45;1.90;;;;;;;27.06;38.65;94993.22;5040832;28;20492;-49
2022/07/15 06:52:57;;;;;;;4.15;2.40;;;;;;;27.06;38.06;94988.44;5041629;28;20029;-48
2022/07/15 06:55:23;;;;;;;4.78;2.17;;;;;;;27.05;38.10;94992.44;5031042;28;20025;-48
2022/07/15 06:57:48;;;;;;;8.43;2.92;;;;;;;26.96;38.19;94979.19;5041628;28;20094;-48
2022/07/15 07:00:15;;;;;;;5.68;2.30;;;;;;;26.66;38.29;94939.06;5041231;28;20047;-49
2022/07/15 07:02:41;;;;;;;6.15;2.10;;;;;;;26.87;38.20;94993.34;5040522;28;20036;-50
2022/07/15 07:05:08;;;;;;;4.55;1.92;;;;;;;26.93;38.63;94985.75;5041441;28;20140;-49
2022/07/15 07:07:33;;;;;;;4.18;2.10;;;;;;;26.82;38.87;94982.50;5041673;28;20376;-48
2022/07/15 07:09:59;;;;;;;7.47;2.10;;;;;;;26.83;38.54;94992.94;5023111;28;20127;-49
2022/07/15 07:12:24;;;;;;;4.95;2.40;;;;;;;26.88;38.62;94980.38;5024301;28;20025;-48
2022/07/15 07:14:50;;;;;;;4.05;2.47;;;;;;;26.87;38.30;94982.38;5041344;28;20032;-48
2022/07/15 07:17:15;;;;;;;3.65;2.40;;;;;;;26.79;39.09;94989.06;5040982;28;20033;-49
2022/07/15 07:19:41;;;;;;;5.88;1.95;;;;;;;26.69;39.24;94987.31;5042077;28;20044;-49
2022/07/15 07:22:06;;;;;;;5.10;2.20;;;;;;;26.70;39.21;94988.78;5034823;28;20427;-48
2022/07/15 07:24:31;;;;;;;4.72;2.20;;;;;;;26.65;39.39;94986.88;5041029;28;20029;-48
2022/07/15 07:26:57;;;;;;;5.60;2.50;;;;;;;26.66;39.22;94988.38;5041535;28;20040;-49
2022/07/15 07:29:22;;;;;;;6.90;2.58;;;;;;;26.61;39.42;94978.28;5041981;28;20436;-50
2022/07/15 07:31:49;;;;;;;4.30;2.50;;;;;;;26.61;39.45;94978.28;5041853;28;20098;-48
2022/07/15 07:34:15;;;;;;;4.88;2.83;;;;;;;26.64;39.64;94979.94;5036370;28;20044;-48
2022/07/15 07:36:41;;;;;;;7.30;3.03;;;;;;;26.66;39.45;94977.41;5025680;28;20614;-48
2022/07/15 07:39:06;;;;;;;5.35;2.10;;;;;;;26.65;39.43;94973.19;5010928;28;20128;-49
2022/07/15 07:41:32;;;;;;;5.10;2.20;;;;;;;26.65;39.64;94975.91;5033280;28;20033;-49
2022/07/15 07:43:58;;;;;;;6.55;2.55;;;;;;;26.67;39.73;94968.66;5040728;28;20552;-49
2022/07/15 07:46:23;;;;;;;6.72;2.88;;;;;;;26.62;39.94;94971.50;5041331;28;20474;-49
2022/07/15 07:48:49;;;;;;;3.15;2.10;;;;;;;26.62;39.95;94983.22;5026307;28;20534;-48
2022/07/15 07:51:14;;;;;;;4.90;2.30;;;;;;;26.65;40.61;94981.41;5045995;28;20032;-48
2022/07/15 07:53:40;;;;;;;6.95;2.85;;;;;;;26.70;39.91;94973.06;5045326;28;20216;-48
2022/07/15 07:56:06;;;;;;;6.63;2.40;;;;;;;26.78;40.17;94985.56;5045924;28;20017;-49
2022/07/15 07:58:31;;;;;;;6.60;2.00;;;;;;;26.81;40.18;94968.06;5044898;28;20570;-51
2022/07/15 08:00:56;;;;;;;5.63;2.50;;;;;;;26.95;39.99;94972.28;5043671;28;20048;-52
2022/07/15 08:03:22;;;;;;;4.82;2.10;;;;;;;27.10;39.46;94977.91;5045444;28;20676;-51
2022/07/15 08:05:48;;;;;;;5.53;2.22;;;;;;;27.23;39.42;94966.13;5045727;28;20112;-50
2022/07/15 08:08:15;;;;;;;6.10;2.53;;;;;;;27.31;38.74;94964.91;5045126;28;20068;-52
2022/07/15 08:10:42;;;;;;;6.32;2.38;;;;;;;27.43;38.61;94966.84;5044754;28;20051;-50
2022/07/15 08:13:07;;;;;;;6.20;2.30;;;;;;;27.59;38.31;94973.19;5044883;28;20032;-51
2022/07/15 08:15:33;;;;;;;4.07;2.45;;;;;;;27.67;37.66;94963.00;5043460;28;20435;-51
2022/07/15 08:18:00;;;;;;;4.88;2.25;;;;;;;27.76;37.89;94966.75;5045006;28;20033;-51
2022/07/15 08:20:25;;;;;;;6.15;2.80;;;;;;;27.84;37.65;94956.53;5044867;28;20082;-52
2022/07/15 08:22:57;;;;;;;5.82;2.20;;;;;;;28.02;37.29;94961.03;5026677;28;20456;-53
2022/07/15 08:25:23;;;;;;;5.38;2.10;;;;;;;28.22;36.21;94957.53;5044546;28;20029;-52
2022/07/15 08:27:49;;;;;;;6.13;2.10;;;;;;;28.23;36.28;94962.44;5044572;28;20021;-52
2022/07/15 08:30:15;;;;;;;6.07;2.13;;;;;;;28.28;36.62;94958.81;5023968;28;20021;-52
2022/07/15 08:32:40;;;;;;;5.45;2.47;;;;;;;28.37;36.60;94963.06;5044136;28;20025;-51
2022/07/15 08:35:06;;;;;;;3.80;2.10;;;;;;;28.46;36.46;94957.78;5044339;28;20115;-51
2022/07/15 08:37:31;;;;;;;5.93;2.47;;;;;;;28.55;36.22;94956.53;5044444;28;20032;-51
2022/07/15 08:39:57;;;;;;;5.00;2.15;;;;;;;28.61;35.98;94954.34;5044245;28;20024;-52
2022/07/15 08:42:22;;;;;;;4.70;2.30;;;;;;;28.69;36.28;94955.16;5043958;28;20029;-51
2022/07/15 08:44:47;;;;;;;6.22;1.98;;;;;;;28.72;35.41;94955.50;5044027;28;20479;-51
2022/07/15 08:47:13;;;;;;;4.80;2.30;;;;;;;28.79;35.41;94949.31;5025604;28;21133;-50
2022/07/15 08:49:39;;;;;;;4.75;2.20;;;;;;;28.86;35.98;94942.34;5022767;28;20056;-51
2022/07/15 08:52:05;;;;;;;6.20;2.17;;;;;;;28.93;34.99;94942.34;5026428;28;20029;-51
2022/07/15 08:54:32;;;;;;;5.70;2.35;;;;;;;28.99;34.98;94940.16;5040998;28;20025;-52
2022/07/15 08:56:57;;;;;;;3.42;2.10;;;;;;;29.04;35.04;94941.28;5025437;28;20037;-51
2022/07/15 08:59:23;;;;;;;5.85;2.20;;;;;;;29.10;35.02;94939.81;5041461;28;20037;-54
2022/07/15 09:01:49;;;;;;;4.47;2.08;;;;;;;29.21;33.82;94936.72;5022671;28;20039;-51
2022/07/15 09:04:15;;;;;;;5.25;2.78;;;;;;;29.29;34.03;94942.97;5043868;28;20029;-50
2022/07/15 09:06:42;;;;;;;4.18;2.35;;;;;;;29.31;33.56;94937.66;5043845;28;20025;-51
2022/07/15 09:09:30;;;;;;;3.75;2.35;;;;;;;29.36;33.79;94939.50;5043748;28;20028;-51
2022/07/15 09:11:59;;;;;;;3.70;2.53;;;;;;;29.39;34.04;94938.41;5032090;28;20098;-50
2022/07/15 09:14:28;;;;;;;4.03;2.17;;;;;;;29.42;33.67;94931.78;5043233;28;20032;-50
2022/07/15 09:17:16;;;;;;;4.80;2.42;;;;;;;29.54;34.08;94927.38;5014905;28;20034;-50
2022/07/15 09:20:08;;;;;;;4.28;2.40;;;;;;;29.61;33.30;94927.38;5032573;28;20037;-52
2022/07/15 09:22:47;;;;;;;4.25;1.95;;;;;;;29.64;33.52;94925.53;5043283;28;20455;-51
2022/07/15 09:25:13;;;;;;;;;;;;;;;29.81;33.32;94935.44;5044046;28;20029;-51
2022/07/15 09:27:40;;;;;;;4.68;2.22;;;;;;;29.68;33.54;94932.84;5043494;28;19917;-51
2022/07/15 09:36:05;;;;;;;3.38;1.83;;;;;;;29.81;32.94;94924.41;5035070;28;20079;-50
2022/07/15 09:38:52;;;;;;;5.07;2.28;;;;;;;29.90;33.23;94926.59;5042462;28;20060;-51
2022/07/15 09:41:26;;;;;;;2.75;1.80;;;;;;;29.83;32.93;94930.09;5043032;28;20023;-51
2022/07/15 09:44:02;;;;;;;2.75;1.88;;;;;;;29.89;32.66;94922.38;5033299;28;20025;-52
2022/07/15 09:46:51;;;;;;;6.80;1.85;;;;;;;29.99;32.66;94928.06;5034184;28;20724;-50
2022/07/15 09:49:24;;;;;;;2.80;1.77;;;;;;;29.94;32.82;94924.22;5039103;28;20028;-51
2022/07/15 09:52:07;;;;;;;3.30;1.80;;;;;;;30.01;32.62;94931.72;5024224;28;20060;-51
2022/07/15 09:54:44;;;;;;;2.65;1.60;;;;;;;30.18;31.45;94923.59;5015366;28;20097;-51
2022/07/15 09:57:14;;;;;;;3.47;1.40;;;;;;;30.22;32.06;94912.91;5042116;28;20051;-52
2022/07/15 09:59:39;;;;;;;3.47;1.60;;;;;;;30.22;32.14;94918.41;5041190;28;20049;-51
2022/07/15 10:02:05;;;;;;;4.47;1.70;;;;;;;30.16;31.80;94914.41;5041976;28;20028;-51
2022/07/15 10:04:30;;;;;;;4.40;1.33;;;;;;;30.07;31.85;94907.44;5041766;28;20032;-51
2022/07/15 10:06:57;;;;;;;3.58;1.25;;;;;;;30.04;32.21;94913.34;5042522;28;20028;-51
2022/07/15 10:09:24;;;;;;;1.88;1.20;;;;;;;29.95;32.07;94922.91;5042943;28;20016;-51
2022/07/15 10:11:52;;;;;;;2.75;1.42;;;;;;;29.90;32.23;94912.84;5041980;28;20021;-52
2022/07/15 10:14:29;;;;;;;3.88;1.42;;;;;;;29.84;32.32;94906.78;5026071;28;20025;-51
2022/07/15 10:17:04;;;;;;;3.10;1.40;;;;;;;29.75;32.29;94904.56;5044148;28;20029;-51
2022/07/15 10:20:06;;;;;;;2.45;1.60;;;;;;;29.69;32.69;94906.06;5041191;28;20090;-53
2022/07/15 10:23:14;;;;;;;4.07;1.27;;;;;;;29.61;32.68;94912.88;4991515;28;20063;-55
2022/07/15 10:26:21;;;;;;;2.60;1.55;;;;;;;29.54;32.75;94899.84;5040144;28;20051;-52
2022/07/15 10:28:53;;;;;;;3.55;1.35;;;;;;;29.40;32.65;94904.06;5010808;28;20037;-52
2022/07/15 10:31:25;;;;;;;4.05;1.40;;;;;;;29.31;32.47;94904.63;5037720;28;20037;-52
2022/07/15 10:34:21;;;;;;;2.90;1.30;;;;;;;29.26;33.20;94902.81;5042501;28;20017;-52
2022/07/15 10:36:46;;;;;;;2.03;1.30;;;;;;;29.15;32.54;94897.66;5033463;28;20037;-52
2022/07/15 10:39:16;;;;;;;4.85;1.50;;;;;;;29.08;33.28;94898.38;5042307;28;20479;-52
2022/07/15 10:41:56;;;;;;;2.65;1.65;;;;;;;28.98;33.08;94883.69;5028794;28;20557;-50
2022/07/15 10:44:22;;;;;;;3.65;1.50;;;;;;;28.90;32.91;94887.75;5030885;28;20124;-52
2022/07/15 10:46:49;;;;;;;3.45;1.35;;;;;;;28.85;33.10;94885.91;5042324;28;20122;-51
2022/07/15 10:49:15;;;;;;;2.25;1.30;;;;;;;28.82;33.47;94890.47;5008227;28;20037;-52
2022/07/15 10:51:40;;;;;;;2.75;1.48;;;;;;;28.81;33.68;94886.25;5041971;28;20085;-54
2022/07/15 10:54:06;;;;;;;2.25;1.60;;;;;;;28.77;33.55;94880.41;5042177;28;20656;-52
2022/07/15 10:56:34;;;;;;;2.20;1.30;;;;;;;28.74;33.43;94881.50;5041822;28;20040;-51
2022/07/15 10:59:23;;;;;;;3.75;1.60;;;;;;;28.71;33.63;94870.84;5024419;28;20128;-51
2022/07/15 11:02:00;;;;;;;3.67;1.55;;;;;;;28.65;33.44;94878.50;5041751;28;20762;-52
2022/07/15 11:04:30;;;;;;;3.05;1.40;;;;;;;28.59;33.53;94874.47;5042430;28;20175;-52
2022/07/15 11:07:02;;;;;;;2.90;1.40;;;;;;;28.61;33.84;94872.66;5024791;28;20017;-52
2022/07/15 11:09:50;;;;;;;1.75;1.35;;;;;;;28.59;34.08;94874.47;5041335;28;20041;-51
2022/07/15 11:12:36;;;;;;;3.63;1.25;;;;;;;28.54;33.54;94872.63;5039872;28;20036;-52
2022/07/15 11:15:02;;;;;;;3.38;1.60;;;;;;;28.48;33.86;94870.06;5026823;28;20064;-52
2022/07/15 11:17:34;;;;;;;3.40;1.55;;;;;;;28.49;33.60;94871.53;5041756;28;20024;-52
2022/07/15 11:20:18;;;;;;;4.90;1.42;;;;;;;28.44;33.34;94866.19;5041975;28;20120;-50
2022/07/15 11:22:47;;;;;;;2.80;1.60;;;;;;;28.40;33.35;94857.56;5041134;28;20116;-51
2022/07/15 11:25:20;;;;;;;3.78;1.67;;;;;;;28.35;33.85;94861.22;5040604;28;20035;-52
2022/07/15 11:28:11;;;;;;;3.15;1.60;;;;;;;28.33;33.34;94858.31;5000597;28;20558;-50
2022/07/15 11:30:44;;;;;;;2.58;1.30;;;;;;;28.32;33.50;94862.31;5042720;28;20040;-53
2022/07/15 11:33:14;;;;;;;2.47;1.40;;;;;;;28.30;33.72;94859.38;5045598;28;20044;-53
2022/07/15 11:35:47;;;;;;;3.67;1.27;;;;;;;28.30;33.88;94854.63;5046185;28;20124;-52
2022/07/15 11:38:13;;;;;;;2.08;1.27;;;;;;;28.31;33.13;94855.34;5046159;28;20025;-51
2022/07/15 11:46:13;;;;;;;2.45;1.52;;;;;;;28.38;33.44;94843.66;5027950;28;20222;-51
2022/07/15 11:48:40;;;;;;;2.75;1.40;;;;;;;28.44;33.00;94852.47;5039579;28;20044;-53
2022/07/15 11:51:06;;;;;;;3.22;1.70;;;;;;;28.46;32.83;94839.66;5045683;28;20033;-53